<?xml version="1.0" encoding="UTF-8" standalone="no" ?>
<gpx xmlns="http://www.topografix.com/GPX/1/1" xmlns:xsi="http://www.w3.org/2001/XMLSchema-instance" xsi:schemaLocation="http://www.topografix.com/GPX/1/1 http://www.topografix.com/GPX/1/1/gpx.xsd" version="1.1" creator="VisuGPX - https://www.visugpx.com">
  <metadata>
    <name>Cluny - Source du Pla - Cluny</name>
    <desc><![CDATA[Randonnée vacances d'Avril en boucle au nord-est de Cluny]]></desc>
  </metadata>
  <trk>
    <name><![CDATA[8479478-Cluny - Source du platre ]]></name>
    <trkseg>
      <trkpt lat="46.43721" lon="4.65643">
        <ele>266</ele>
        <time>2018-03-28T18:14:56Z</time>
      </trkpt>
      <trkpt lat="46.43702" lon="4.65695">
        <ele>262</ele>
        <time>2018-03-28T18:15:56Z</time>
      </trkpt>
      <trkpt lat="46.43688" lon="4.65705">
        <ele>261</ele>
        <time>2018-03-28T18:16:56Z</time>
      </trkpt>
      <trkpt lat="46.43659" lon="4.65779">
        <ele>255</ele>
        <time>2018-03-28T18:17:56Z</time>
      </trkpt>
      <trkpt lat="46.43757" lon="4.658">
        <ele>253</ele>
        <time>2018-03-28T18:18:56Z</time>
      </trkpt>
      <trkpt lat="46.43647" lon="4.65948">
        <ele>241</ele>
        <time>2018-03-28T18:19:56Z</time>
      </trkpt>
      <trkpt lat="46.43553" lon="4.66292">
        <ele>234</ele>
        <time>2018-03-28T18:20:56Z</time>
      </trkpt>
      <trkpt lat="46.43516" lon="4.66305">
        <ele>234</ele>
        <time>2018-03-28T18:21:56Z</time>
      </trkpt>
      <trkpt lat="46.43333" lon="4.66236">
        <ele>237</ele>
        <time>2018-03-28T18:22:56Z</time>
      </trkpt>
      <trkpt lat="46.43301" lon="4.66402">
        <ele>235</ele>
        <time>2018-03-28T18:23:56Z</time>
      </trkpt>
      <trkpt lat="46.43221" lon="4.6639">
        <ele>235</ele>
        <time>2018-03-28T18:24:56Z</time>
      </trkpt>
      <trkpt lat="46.43221" lon="4.66442">
        <ele>235</ele>
        <time>2018-03-28T18:25:56Z</time>
      </trkpt>
      <trkpt lat="46.43242" lon="4.66646">
        <ele>235</ele>
        <time>2018-03-28T18:26:56Z</time>
      </trkpt>
      <trkpt lat="46.43241" lon="4.66742">
        <ele>236</ele>
        <time>2018-03-28T18:27:56Z</time>
      </trkpt>
      <trkpt lat="46.43063" lon="4.66758">
        <ele>238</ele>
        <time>2018-03-28T18:28:56Z</time>
      </trkpt>
      <trkpt lat="46.42997" lon="4.66774">
        <ele>240</ele>
        <time>2018-03-28T18:29:56Z</time>
      </trkpt>
      <trkpt lat="46.42679" lon="4.66628">
        <ele>243</ele>
        <time>2018-03-28T18:30:56Z</time>
      </trkpt>
      <trkpt lat="46.42619" lon="4.66601">
        <ele>243</ele>
        <time>2018-03-28T18:31:56Z</time>
      </trkpt>
      <trkpt lat="46.4257" lon="4.6663">
        <ele>245</ele>
        <time>2018-03-28T18:32:56Z</time>
      </trkpt>
      <trkpt lat="46.42639" lon="4.66673">
        <ele>245</ele>
        <time>2018-03-28T18:33:56Z</time>
      </trkpt>
      <trkpt lat="46.4264" lon="4.66702">
        <ele>246</ele>
        <time>2018-03-28T18:34:56Z</time>
      </trkpt>
      <trkpt lat="46.42628" lon="4.66735">
        <ele>247</ele>
        <time>2018-03-28T18:35:56Z</time>
      </trkpt>
      <trkpt lat="46.4263" lon="4.66793">
        <ele>248</ele>
        <time>2018-03-28T18:36:56Z</time>
      </trkpt>
      <trkpt lat="46.42566" lon="4.66884">
        <ele>248</ele>
        <time>2018-03-28T18:37:56Z</time>
      </trkpt>
      <trkpt lat="46.42547" lon="4.67027">
        <ele>252</ele>
        <time>2018-03-28T18:38:56Z</time>
      </trkpt>
      <trkpt lat="46.42396" lon="4.66926">
        <ele>257</ele>
        <time>2018-03-28T18:39:56Z</time>
      </trkpt>
      <trkpt lat="46.42357" lon="4.66974">
        <ele>260</ele>
        <time>2018-03-28T18:40:56Z</time>
      </trkpt>
      <trkpt lat="46.42317" lon="4.67072">
        <ele>265</ele>
        <time>2018-03-28T18:41:56Z</time>
      </trkpt>
      <trkpt lat="46.42236" lon="4.67175">
        <ele>271</ele>
        <time>2018-03-28T18:42:56Z</time>
      </trkpt>
      <trkpt lat="46.42186" lon="4.67255">
        <ele>275</ele>
        <time>2018-03-28T18:43:56Z</time>
      </trkpt>
      <trkpt lat="46.42134" lon="4.67319">
        <ele>278</ele>
        <time>2018-03-28T18:44:56Z</time>
      </trkpt>
      <trkpt lat="46.42121" lon="4.67379">
        <ele>279</ele>
        <time>2018-03-28T18:45:56Z</time>
      </trkpt>
      <trkpt lat="46.41962" lon="4.67699">
        <ele>321</ele>
        <time>2018-03-28T18:46:56Z</time>
      </trkpt>
      <trkpt lat="46.41878" lon="4.67787">
        <ele>330</ele>
        <time>2018-03-28T18:47:56Z</time>
      </trkpt>
      <trkpt lat="46.41834" lon="4.68042">
        <ele>349</ele>
        <time>2018-03-28T18:48:56Z</time>
      </trkpt>
      <trkpt lat="46.41786" lon="4.68186">
        <ele>351</ele>
        <time>2018-03-28T18:49:56Z</time>
      </trkpt>
      <trkpt lat="46.41714" lon="4.68274">
        <ele>353</ele>
        <time>2018-03-28T18:50:56Z</time>
      </trkpt>
      <trkpt lat="46.41674" lon="4.68283">
        <ele>349</ele>
        <time>2018-03-28T18:51:56Z</time>
      </trkpt>
      <trkpt lat="46.4159" lon="4.68405">
        <ele>364</ele>
        <time>2018-03-28T18:52:56Z</time>
      </trkpt>
      <trkpt lat="46.41396" lon="4.6869">
        <ele>389</ele>
        <time>2018-03-28T18:53:56Z</time>
      </trkpt>
      <trkpt lat="46.41378" lon="4.68768">
        <ele>395</ele>
        <time>2018-03-28T18:54:56Z</time>
      </trkpt>
      <trkpt lat="46.4132" lon="4.68768">
        <ele>397</ele>
        <time>2018-03-28T18:55:56Z</time>
      </trkpt>
      <trkpt lat="46.41272" lon="4.68834">
        <ele>408</ele>
        <time>2018-03-28T18:56:56Z</time>
      </trkpt>
      <trkpt lat="46.41205" lon="4.69096">
        <ele>445</ele>
        <time>2018-03-28T18:57:56Z</time>
      </trkpt>
      <trkpt lat="46.4118" lon="4.69152">
        <ele>447</ele>
        <time>2018-03-28T18:58:56Z</time>
      </trkpt>
      <trkpt lat="46.4122" lon="4.69201">
        <ele>455</ele>
        <time>2018-03-28T18:59:56Z</time>
      </trkpt>
      <trkpt lat="46.4126" lon="4.6928">
        <ele>460</ele>
        <time>2018-03-28T19:00:56Z</time>
      </trkpt>
      <trkpt lat="46.41209" lon="4.69358">
        <ele>466</ele>
        <time>2018-03-28T19:01:56Z</time>
      </trkpt>
      <trkpt lat="46.41081" lon="4.69405">
        <ele>484</ele>
        <time>2018-03-28T19:02:56Z</time>
      </trkpt>
      <trkpt lat="46.40968" lon="4.69416">
        <ele>491</ele>
        <time>2018-03-28T19:03:56Z</time>
      </trkpt>
      <trkpt lat="46.40878" lon="4.69465">
        <ele>503</ele>
        <time>2018-03-28T19:04:56Z</time>
      </trkpt>
      <trkpt lat="46.40964" lon="4.6957">
        <ele>509</ele>
        <time>2018-03-28T19:05:56Z</time>
      </trkpt>
      <trkpt lat="46.40973" lon="4.69679">
        <ele>511</ele>
        <time>2018-03-28T19:06:56Z</time>
      </trkpt>
      <trkpt lat="46.41097" lon="4.69761">
        <ele>506</ele>
        <time>2018-03-28T19:07:56Z</time>
      </trkpt>
      <trkpt lat="46.41372" lon="4.69928">
        <ele>523</ele>
        <time>2018-03-28T19:08:56Z</time>
      </trkpt>
      <trkpt lat="46.41457" lon="4.69916">
        <ele>528</ele>
        <time>2018-03-28T19:09:56Z</time>
      </trkpt>
      <trkpt lat="46.41633" lon="4.70021">
        <ele>549</ele>
        <time>2018-03-28T19:10:56Z</time>
      </trkpt>
      <trkpt lat="46.41662" lon="4.70002">
        <ele>552</ele>
        <time>2018-03-28T19:11:56Z</time>
      </trkpt>
      <trkpt lat="46.41818" lon="4.70164">
        <ele>517</ele>
        <time>2018-03-28T19:12:56Z</time>
      </trkpt>
      <trkpt lat="46.41899" lon="4.70117">
        <ele>518</ele>
        <time>2018-03-28T19:13:56Z</time>
      </trkpt>
      <trkpt lat="46.41983" lon="4.70132">
        <ele>510</ele>
        <time>2018-03-28T19:14:56Z</time>
      </trkpt>
      <trkpt lat="46.42093" lon="4.70119">
        <ele>511</ele>
        <time>2018-03-28T19:15:56Z</time>
      </trkpt>
      <trkpt lat="46.42221" lon="4.69986">
        <ele>516</ele>
        <time>2018-03-28T19:16:56Z</time>
      </trkpt>
      <trkpt lat="46.4231" lon="4.70008">
        <ele>520</ele>
        <time>2018-03-28T19:17:56Z</time>
      </trkpt>
      <trkpt lat="46.4243" lon="4.69954">
        <ele>509</ele>
        <time>2018-03-28T19:18:56Z</time>
      </trkpt>
      <trkpt lat="46.42532" lon="4.69971">
        <ele>508</ele>
        <time>2018-03-28T19:19:56Z</time>
      </trkpt>
      <trkpt lat="46.42637" lon="4.70027">
        <ele>507</ele>
        <time>2018-03-28T19:20:56Z</time>
      </trkpt>
      <trkpt lat="46.42739" lon="4.70194">
        <ele>509</ele>
        <time>2018-03-28T19:21:56Z</time>
      </trkpt>
      <trkpt lat="46.42922" lon="4.70377">
        <ele>509</ele>
        <time>2018-03-28T19:22:56Z</time>
      </trkpt>
      <trkpt lat="46.42952" lon="4.70452">
        <ele>504</ele>
        <time>2018-03-28T19:23:56Z</time>
      </trkpt>
      <trkpt lat="46.4281" lon="4.706">
        <ele>519</ele>
        <time>2018-03-28T19:24:56Z</time>
      </trkpt>
      <trkpt lat="46.42785" lon="4.70664">
        <ele>508</ele>
        <time>2018-03-28T19:25:56Z</time>
      </trkpt>
      <trkpt lat="46.42738" lon="4.70746">
        <ele>508</ele>
        <time>2018-03-28T19:26:56Z</time>
      </trkpt>
      <trkpt lat="46.42715" lon="4.7086">
        <ele>515</ele>
        <time>2018-03-28T19:27:56Z</time>
      </trkpt>
      <trkpt lat="46.42888" lon="4.71076">
        <ele>513</ele>
        <time>2018-03-28T19:28:56Z</time>
      </trkpt>
      <trkpt lat="46.42868" lon="4.7122">
        <ele>515</ele>
        <time>2018-03-28T19:29:56Z</time>
      </trkpt>
      <trkpt lat="46.42843" lon="4.71263">
        <ele>516</ele>
        <time>2018-03-28T19:30:56Z</time>
      </trkpt>
      <trkpt lat="46.42866" lon="4.71437">
        <ele>522</ele>
        <time>2018-03-28T19:31:56Z</time>
      </trkpt>
      <trkpt lat="46.42866" lon="4.71553">
        <ele>529</ele>
        <time>2018-03-28T19:32:56Z</time>
      </trkpt>
      <trkpt lat="46.42897" lon="4.71606">
        <ele>527</ele>
        <time>2018-03-28T19:33:56Z</time>
      </trkpt>
      <trkpt lat="46.42956" lon="4.71606">
        <ele>523</ele>
        <time>2018-03-28T19:34:56Z</time>
      </trkpt>
      <trkpt lat="46.42995" lon="4.71643">
        <ele>524</ele>
        <time>2018-03-28T19:35:56Z</time>
      </trkpt>
      <trkpt lat="46.43137" lon="4.71664">
        <ele>522</ele>
        <time>2018-03-28T19:36:56Z</time>
      </trkpt>
      <trkpt lat="46.43202" lon="4.71712">
        <ele>523</ele>
        <time>2018-03-28T19:37:56Z</time>
      </trkpt>
      <trkpt lat="46.43378" lon="4.71598">
        <ele>519</ele>
        <time>2018-03-28T19:38:56Z</time>
      </trkpt>
      <trkpt lat="46.43486" lon="4.71495">
        <ele>520</ele>
        <time>2018-03-28T19:39:56Z</time>
      </trkpt>
      <trkpt lat="46.43662" lon="4.71357">
        <ele>518</ele>
        <time>2018-03-28T19:40:56Z</time>
      </trkpt>
      <trkpt lat="46.43768" lon="4.71306">
        <ele>529</ele>
        <time>2018-03-28T19:41:56Z</time>
      </trkpt>
      <trkpt lat="46.43838" lon="4.71332">
        <ele>538</ele>
        <time>2018-03-28T19:42:56Z</time>
      </trkpt>
      <trkpt lat="46.4402" lon="4.71239">
        <ele>532</ele>
        <time>2018-03-28T19:43:56Z</time>
      </trkpt>
      <trkpt lat="46.44151" lon="4.71248">
        <ele>522</ele>
        <time>2018-03-28T19:44:56Z</time>
      </trkpt>
      <trkpt lat="46.44284" lon="4.71353">
        <ele>499</ele>
        <time>2018-03-28T19:45:56Z</time>
      </trkpt>
      <trkpt lat="46.44342" lon="4.71415">
        <ele>491</ele>
        <time>2018-03-28T19:46:56Z</time>
      </trkpt>
      <trkpt lat="46.44426" lon="4.71448">
        <ele>488</ele>
        <time>2018-03-28T19:47:56Z</time>
      </trkpt>
      <trkpt lat="46.44475" lon="4.71529">
        <ele>487</ele>
        <time>2018-03-28T19:48:56Z</time>
      </trkpt>
      <trkpt lat="46.44528" lon="4.7154">
        <ele>488</ele>
        <time>2018-03-28T19:49:56Z</time>
      </trkpt>
      <trkpt lat="46.4459" lon="4.71591">
        <ele>485</ele>
        <time>2018-03-28T19:50:56Z</time>
      </trkpt>
      <trkpt lat="46.44645" lon="4.71606">
        <ele>481</ele>
        <time>2018-03-28T19:51:56Z</time>
      </trkpt>
      <trkpt lat="46.44728" lon="4.71684">
        <ele>474</ele>
        <time>2018-03-28T19:52:56Z</time>
      </trkpt>
      <trkpt lat="46.44799" lon="4.71718">
        <ele>467</ele>
        <time>2018-03-28T19:53:56Z</time>
      </trkpt>
      <trkpt lat="46.44864" lon="4.71819">
        <ele>455</ele>
        <time>2018-03-28T19:54:56Z</time>
      </trkpt>
      <trkpt lat="46.4488" lon="4.71842">
        <ele>453</ele>
        <time>2018-03-28T19:55:56Z</time>
      </trkpt>
      <trkpt lat="46.44893" lon="4.71823">
        <ele>454</ele>
        <time>2018-03-28T19:56:56Z</time>
      </trkpt>
      <trkpt lat="46.44921" lon="4.71845">
        <ele>452</ele>
        <time>2018-03-28T19:57:56Z</time>
      </trkpt>
      <trkpt lat="46.44946" lon="4.71879">
        <ele>446</ele>
        <time>2018-03-28T19:58:56Z</time>
      </trkpt>
      <trkpt lat="46.44933" lon="4.71974">
        <ele>438</ele>
        <time>2018-03-28T19:59:56Z</time>
      </trkpt>
      <trkpt lat="46.4504" lon="4.72012">
        <ele>428</ele>
        <time>2018-03-28T20:00:56Z</time>
      </trkpt>
      <trkpt lat="46.45085" lon="4.72015">
        <ele>424</ele>
        <time>2018-03-28T20:01:56Z</time>
      </trkpt>
      <trkpt lat="46.45134" lon="4.72078">
        <ele>418</ele>
        <time>2018-03-28T20:02:56Z</time>
      </trkpt>
      <trkpt lat="46.45175" lon="4.72071">
        <ele>416</ele>
        <time>2018-03-28T20:03:56Z</time>
      </trkpt>
      <trkpt lat="46.45222" lon="4.72087">
        <ele>412</ele>
        <time>2018-03-28T20:04:56Z</time>
      </trkpt>
      <trkpt lat="46.45251" lon="4.7206">
        <ele>411</ele>
        <time>2018-03-28T20:05:56Z</time>
      </trkpt>
      <trkpt lat="46.45303" lon="4.7203">
        <ele>415</ele>
        <time>2018-03-28T20:06:56Z</time>
      </trkpt>
      <trkpt lat="46.4534" lon="4.71984">
        <ele>422</ele>
        <time>2018-03-28T20:07:56Z</time>
      </trkpt>
      <trkpt lat="46.454" lon="4.72036">
        <ele>424</ele>
        <time>2018-03-28T20:08:56Z</time>
      </trkpt>
      <trkpt lat="46.45521" lon="4.72178">
        <ele>417</ele>
        <time>2018-03-28T20:09:56Z</time>
      </trkpt>
      <trkpt lat="46.45582" lon="4.72202">
        <ele>415</ele>
        <time>2018-03-28T20:10:56Z</time>
      </trkpt>
      <trkpt lat="46.45676" lon="4.72147">
        <ele>417</ele>
        <time>2018-03-28T20:11:56Z</time>
      </trkpt>
      <trkpt lat="46.457" lon="4.72151">
        <ele>418</ele>
        <time>2018-03-28T20:12:56Z</time>
      </trkpt>
      <trkpt lat="46.45718" lon="4.7218">
        <ele>419</ele>
        <time>2018-03-28T20:13:56Z</time>
      </trkpt>
      <trkpt lat="46.45688" lon="4.72298">
        <ele>414</ele>
        <time>2018-03-28T20:14:56Z</time>
      </trkpt>
      <trkpt lat="46.4569" lon="4.72328">
        <ele>413</ele>
        <time>2018-03-28T20:15:56Z</time>
      </trkpt>
      <trkpt lat="46.45836" lon="4.7249">
        <ele>427</ele>
        <time>2018-03-28T20:16:56Z</time>
      </trkpt>
      <trkpt lat="46.45879" lon="4.726">
        <ele>430</ele>
        <time>2018-03-28T20:17:56Z</time>
      </trkpt>
      <trkpt lat="46.45895" lon="4.72715">
        <ele>430</ele>
        <time>2018-03-28T20:18:56Z</time>
      </trkpt>
      <trkpt lat="46.45975" lon="4.72775">
        <ele>439</ele>
        <time>2018-03-28T20:19:56Z</time>
      </trkpt>
      <trkpt lat="46.46025" lon="4.7286">
        <ele>442</ele>
        <time>2018-03-28T20:20:56Z</time>
      </trkpt>
      <trkpt lat="46.46046" lon="4.73008">
        <ele>446</ele>
        <time>2018-03-28T20:21:56Z</time>
      </trkpt>
      <trkpt lat="46.46134" lon="4.73125">
        <ele>449</ele>
        <time>2018-03-28T20:22:56Z</time>
      </trkpt>
      <trkpt lat="46.46169" lon="4.73232">
        <ele>450</ele>
        <time>2018-03-28T20:23:56Z</time>
      </trkpt>
      <trkpt lat="46.4623" lon="4.73326">
        <ele>453</ele>
        <time>2018-03-28T20:24:56Z</time>
      </trkpt>
      <trkpt lat="46.46461" lon="4.73566">
        <ele>447</ele>
        <time>2018-03-28T20:25:56Z</time>
      </trkpt>
      <trkpt lat="46.46476" lon="4.7362">
        <ele>445</ele>
        <time>2018-03-28T20:26:56Z</time>
      </trkpt>
      <trkpt lat="46.46462" lon="4.73692">
        <ele>447</ele>
        <time>2018-03-28T20:27:56Z</time>
      </trkpt>
      <trkpt lat="46.46552" lon="4.73808">
        <ele>437</ele>
        <time>2018-03-28T20:28:56Z</time>
      </trkpt>
      <trkpt lat="46.4667" lon="4.73901">
        <ele>433</ele>
        <time>2018-03-28T20:29:56Z</time>
      </trkpt>
      <trkpt lat="46.46726" lon="4.73912">
        <ele>426</ele>
        <time>2018-03-28T20:30:56Z</time>
      </trkpt>
      <trkpt lat="46.46753" lon="4.73954">
        <ele>425</ele>
        <time>2018-03-28T20:31:56Z</time>
      </trkpt>
      <trkpt lat="46.46792" lon="4.7406">
        <ele>431</ele>
        <time>2018-03-28T20:32:56Z</time>
      </trkpt>
      <trkpt lat="46.4689" lon="4.74105">
        <ele>432</ele>
        <time>2018-03-28T20:33:56Z</time>
      </trkpt>
      <trkpt lat="46.47055" lon="4.74564">
        <ele>459</ele>
        <time>2018-03-28T20:34:56Z</time>
      </trkpt>
      <trkpt lat="46.47129" lon="4.74683">
        <ele>471</ele>
        <time>2018-03-28T20:35:56Z</time>
      </trkpt>
      <trkpt lat="46.47196" lon="4.74724">
        <ele>472</ele>
        <time>2018-03-28T20:36:56Z</time>
      </trkpt>
      <trkpt lat="46.47166" lon="4.748">
        <ele>480</ele>
        <time>2018-03-28T20:37:56Z</time>
      </trkpt>
      <trkpt lat="46.47202" lon="4.74883">
        <ele>486</ele>
        <time>2018-03-28T20:38:56Z</time>
      </trkpt>
      <trkpt lat="46.47199" lon="4.74933">
        <ele>490</ele>
        <time>2018-03-28T20:39:56Z</time>
      </trkpt>
      <trkpt lat="46.47239" lon="4.74944">
        <ele>492</ele>
        <time>2018-03-28T20:40:56Z</time>
      </trkpt>
      <trkpt lat="46.47281" lon="4.74903">
        <ele>489</ele>
        <time>2018-03-28T20:41:56Z</time>
      </trkpt>
      <trkpt lat="46.47562" lon="4.75125">
        <ele>491</ele>
        <time>2018-03-28T20:42:56Z</time>
      </trkpt>
      <trkpt lat="46.47806" lon="4.75193">
        <ele>494</ele>
        <time>2018-03-28T20:43:56Z</time>
      </trkpt>
      <trkpt lat="46.47862" lon="4.7519">
        <ele>492</ele>
        <time>2018-03-28T20:44:56Z</time>
      </trkpt>
      <trkpt lat="46.47891" lon="4.75182">
        <ele>491</ele>
        <time>2018-03-28T20:45:56Z</time>
      </trkpt>
      <trkpt lat="46.47934" lon="4.75217">
        <ele>492</ele>
        <time>2018-03-28T20:46:56Z</time>
      </trkpt>
      <trkpt lat="46.48027" lon="4.75294">
        <ele>493</ele>
        <time>2018-03-28T20:47:56Z</time>
      </trkpt>
      <trkpt lat="46.48057" lon="4.75354">
        <ele>490</ele>
        <time>2018-03-28T20:48:56Z</time>
      </trkpt>
      <trkpt lat="46.48328" lon="4.75646">
        <ele>471</ele>
        <time>2018-03-28T20:49:56Z</time>
      </trkpt>
      <trkpt lat="46.48784" lon="4.76132">
        <ele>475</ele>
        <time>2018-03-28T20:50:56Z</time>
      </trkpt>
      <trkpt lat="46.48834" lon="4.76222">
        <ele>476</ele>
        <time>2018-03-28T20:51:56Z</time>
      </trkpt>
      <trkpt lat="46.48898" lon="4.76265">
        <ele>479</ele>
        <time>2018-03-28T20:52:56Z</time>
      </trkpt>
      <trkpt lat="46.48945" lon="4.76137">
        <ele>488</ele>
        <time>2018-03-28T20:53:56Z</time>
      </trkpt>
      <trkpt lat="46.48989" lon="4.76072">
        <ele>496</ele>
        <time>2018-03-28T20:54:56Z</time>
      </trkpt>
      <trkpt lat="46.49037" lon="4.75987">
        <ele>504</ele>
        <time>2018-03-28T20:55:56Z</time>
      </trkpt>
      <trkpt lat="46.4911" lon="4.75928">
        <ele>517</ele>
        <time>2018-03-28T20:56:56Z</time>
      </trkpt>
      <trkpt lat="46.49282" lon="4.7596">
        <ele>527</ele>
        <time>2018-03-28T20:57:56Z</time>
      </trkpt>
      <trkpt lat="46.49354" lon="4.75895">
        <ele>532</ele>
        <time>2018-03-28T20:58:56Z</time>
      </trkpt>
      <trkpt lat="46.4934" lon="4.75859">
        <ele>536</ele>
        <time>2018-03-28T20:59:56Z</time>
      </trkpt>
      <trkpt lat="46.49221" lon="4.75733">
        <ele>550</ele>
        <time>2018-03-28T21:00:56Z</time>
      </trkpt>
      <trkpt lat="46.49061" lon="4.75726">
        <ele>537</ele>
        <time>2018-03-28T21:01:56Z</time>
      </trkpt>
      <trkpt lat="46.48991" lon="4.75653">
        <ele>536</ele>
        <time>2018-03-28T21:02:56Z</time>
      </trkpt>
      <trkpt lat="46.4893" lon="4.75597">
        <ele>535</ele>
        <time>2018-03-28T21:03:56Z</time>
      </trkpt>
      <trkpt lat="46.48705" lon="4.75511">
        <ele>524</ele>
        <time>2018-03-28T21:04:56Z</time>
      </trkpt>
      <trkpt lat="46.48641" lon="4.75516">
        <ele>521</ele>
        <time>2018-03-28T21:05:56Z</time>
      </trkpt>
      <trkpt lat="46.48277" lon="4.75235">
        <ele>519</ele>
        <time>2018-03-28T21:06:56Z</time>
      </trkpt>
      <trkpt lat="46.48249" lon="4.75181">
        <ele>516</ele>
        <time>2018-03-28T21:07:56Z</time>
      </trkpt>
      <trkpt lat="46.48232" lon="4.75132">
        <ele>508</ele>
        <time>2018-03-28T21:08:56Z</time>
      </trkpt>
      <trkpt lat="46.48027" lon="4.75058">
        <ele>487</ele>
        <time>2018-03-28T21:09:56Z</time>
      </trkpt>
      <trkpt lat="46.47936" lon="4.75078">
        <ele>479</ele>
        <time>2018-03-28T21:10:56Z</time>
      </trkpt>
      <trkpt lat="46.47891" lon="4.75105">
        <ele>480</ele>
        <time>2018-03-28T21:11:56Z</time>
      </trkpt>
      <trkpt lat="46.47858" lon="4.75175">
        <ele>490</ele>
        <time>2018-03-28T21:12:56Z</time>
      </trkpt>
      <trkpt lat="46.47855" lon="4.75076">
        <ele>473</ele>
        <time>2018-03-28T21:13:56Z</time>
      </trkpt>
      <trkpt lat="46.47973" lon="4.74859">
        <ele>441</ele>
        <time>2018-03-28T21:14:56Z</time>
      </trkpt>
      <trkpt lat="46.47926" lon="4.74764">
        <ele>429</ele>
        <time>2018-03-28T21:15:56Z</time>
      </trkpt>
      <trkpt lat="46.47911" lon="4.74686">
        <ele>422</ele>
        <time>2018-03-28T21:16:56Z</time>
      </trkpt>
      <trkpt lat="46.47895" lon="4.74639">
        <ele>418</ele>
        <time>2018-03-28T21:17:56Z</time>
      </trkpt>
      <trkpt lat="46.47888" lon="4.74542">
        <ele>407</ele>
        <time>2018-03-28T21:18:56Z</time>
      </trkpt>
      <trkpt lat="46.47937" lon="4.74448">
        <ele>396</ele>
        <time>2018-03-28T21:19:56Z</time>
      </trkpt>
      <trkpt lat="46.4806" lon="4.74479">
        <ele>396</ele>
        <time>2018-03-28T21:20:56Z</time>
      </trkpt>
      <trkpt lat="46.48096" lon="4.74423">
        <ele>388</ele>
        <time>2018-03-28T21:21:56Z</time>
      </trkpt>
      <trkpt lat="46.48053" lon="4.74385">
        <ele>383</ele>
        <time>2018-03-28T21:22:56Z</time>
      </trkpt>
      <trkpt lat="46.48053" lon="4.74325">
        <ele>374</ele>
        <time>2018-03-28T21:23:56Z</time>
      </trkpt>
      <trkpt lat="46.47985" lon="4.74116">
        <ele>353</ele>
        <time>2018-03-28T21:24:56Z</time>
      </trkpt>
      <trkpt lat="46.47952" lon="4.74096">
        <ele>351</ele>
        <time>2018-03-28T21:25:56Z</time>
      </trkpt>
      <trkpt lat="46.47952" lon="4.74017">
        <ele>345</ele>
        <time>2018-03-28T21:26:56Z</time>
      </trkpt>
      <trkpt lat="46.47908" lon="4.73937">
        <ele>339</ele>
        <time>2018-03-28T21:27:56Z</time>
      </trkpt>
      <trkpt lat="46.47644" lon="4.73788">
        <ele>343</ele>
        <time>2018-03-28T21:28:56Z</time>
      </trkpt>
      <trkpt lat="46.47566" lon="4.73726">
        <ele>345</ele>
        <time>2018-03-28T21:29:56Z</time>
      </trkpt>
      <trkpt lat="46.47521" lon="4.73581">
        <ele>343</ele>
        <time>2018-03-28T21:30:56Z</time>
      </trkpt>
      <trkpt lat="46.4747" lon="4.73527">
        <ele>349</ele>
        <time>2018-03-28T21:31:56Z</time>
      </trkpt>
      <trkpt lat="46.4741" lon="4.73499">
        <ele>356</ele>
        <time>2018-03-28T21:32:56Z</time>
      </trkpt>
      <trkpt lat="46.47411" lon="4.73423">
        <ele>353</ele>
        <time>2018-03-28T21:33:56Z</time>
      </trkpt>
      <trkpt lat="46.47398" lon="4.73403">
        <ele>353</ele>
        <time>2018-03-28T21:34:56Z</time>
      </trkpt>
      <trkpt lat="46.47362" lon="4.73371">
        <ele>355</ele>
        <time>2018-03-28T21:35:56Z</time>
      </trkpt>
      <trkpt lat="46.47357" lon="4.73388">
        <ele>356</ele>
        <time>2018-03-28T21:36:56Z</time>
      </trkpt>
      <trkpt lat="46.47313" lon="4.73383">
        <ele>357</ele>
        <time>2018-03-28T21:37:56Z</time>
      </trkpt>
      <trkpt lat="46.47263" lon="4.73448">
        <ele>359</ele>
        <time>2018-03-28T21:38:56Z</time>
      </trkpt>
      <trkpt lat="46.47222" lon="4.73452">
        <ele>361</ele>
        <time>2018-03-28T21:39:56Z</time>
      </trkpt>
      <trkpt lat="46.47119" lon="4.73408">
        <ele>368</ele>
        <time>2018-03-28T21:40:56Z</time>
      </trkpt>
      <trkpt lat="46.47026" lon="4.73373">
        <ele>374</ele>
        <time>2018-03-28T21:41:56Z</time>
      </trkpt>
      <trkpt lat="46.46972" lon="4.73447">
        <ele>382</ele>
        <time>2018-03-28T21:42:56Z</time>
      </trkpt>
      <trkpt lat="46.46899" lon="4.73509">
        <ele>396</ele>
        <time>2018-03-28T21:43:56Z</time>
      </trkpt>
      <trkpt lat="46.46713" lon="4.73556">
        <ele>418</ele>
        <time>2018-03-28T21:44:56Z</time>
      </trkpt>
      <trkpt lat="46.46642" lon="4.7357">
        <ele>425</ele>
        <time>2018-03-28T21:45:56Z</time>
      </trkpt>
      <trkpt lat="46.46581" lon="4.73556">
        <ele>431</ele>
        <time>2018-03-28T21:46:56Z</time>
      </trkpt>
      <trkpt lat="46.46536" lon="4.73562">
        <ele>437</ele>
        <time>2018-03-28T21:47:56Z</time>
      </trkpt>
      <trkpt lat="46.46475" lon="4.73594">
        <ele>445</ele>
        <time>2018-03-28T21:48:56Z</time>
      </trkpt>
      <trkpt lat="46.46255" lon="4.73368">
        <ele>455</ele>
        <time>2018-03-28T21:49:56Z</time>
      </trkpt>
      <trkpt lat="46.46145" lon="4.73188">
        <ele>449</ele>
        <time>2018-03-28T21:50:56Z</time>
      </trkpt>
      <trkpt lat="46.46135" lon="4.73125">
        <ele>449</ele>
        <time>2018-03-28T21:51:56Z</time>
      </trkpt>
      <trkpt lat="46.46151" lon="4.73078">
        <ele>450</ele>
        <time>2018-03-28T21:52:56Z</time>
      </trkpt>
      <trkpt lat="46.46173" lon="4.73031">
        <ele>451</ele>
        <time>2018-03-28T21:53:56Z</time>
      </trkpt>
      <trkpt lat="46.46184" lon="4.72972">
        <ele>452</ele>
        <time>2018-03-28T21:54:56Z</time>
      </trkpt>
      <trkpt lat="46.4618" lon="4.72923">
        <ele>452</ele>
        <time>2018-03-28T21:55:56Z</time>
      </trkpt>
      <trkpt lat="46.46225" lon="4.72775">
        <ele>455</ele>
        <time>2018-03-28T21:56:56Z</time>
      </trkpt>
      <trkpt lat="46.46257" lon="4.72647">
        <ele>464</ele>
        <time>2018-03-28T21:57:56Z</time>
      </trkpt>
      <trkpt lat="46.46223" lon="4.72532">
        <ele>468</ele>
        <time>2018-03-28T21:58:56Z</time>
      </trkpt>
      <trkpt lat="46.46218" lon="4.72463">
        <ele>468</ele>
        <time>2018-03-28T21:59:56Z</time>
      </trkpt>
      <trkpt lat="46.46264" lon="4.72348">
        <ele>472</ele>
        <time>2018-03-28T22:00:56Z</time>
      </trkpt>
      <trkpt lat="46.46172" lon="4.72021">
        <ele>473</ele>
        <time>2018-03-28T22:01:56Z</time>
      </trkpt>
      <trkpt lat="46.46163" lon="4.71958">
        <ele>472</ele>
        <time>2018-03-28T22:02:56Z</time>
      </trkpt>
      <trkpt lat="46.46148" lon="4.71913">
        <ele>469</ele>
        <time>2018-03-28T22:03:56Z</time>
      </trkpt>
      <trkpt lat="46.46153" lon="4.71875">
        <ele>469</ele>
        <time>2018-03-28T22:04:56Z</time>
      </trkpt>
      <trkpt lat="46.46096" lon="4.71794">
        <ele>467</ele>
        <time>2018-03-28T22:05:56Z</time>
      </trkpt>
      <trkpt lat="46.46091" lon="4.7174">
        <ele>463</ele>
        <time>2018-03-28T22:06:56Z</time>
      </trkpt>
      <trkpt lat="46.45903" lon="4.71731">
        <ele>463</ele>
        <time>2018-03-28T22:07:56Z</time>
      </trkpt>
      <trkpt lat="46.45856" lon="4.71734">
        <ele>465</ele>
        <time>2018-03-28T22:08:56Z</time>
      </trkpt>
      <trkpt lat="46.45807" lon="4.71713">
        <ele>462</ele>
        <time>2018-03-28T22:09:56Z</time>
      </trkpt>
      <trkpt lat="46.45761" lon="4.71747">
        <ele>467</ele>
        <time>2018-03-28T22:10:56Z</time>
      </trkpt>
      <trkpt lat="46.45703" lon="4.71709">
        <ele>464</ele>
        <time>2018-03-28T22:11:56Z</time>
      </trkpt>
      <trkpt lat="46.45692" lon="4.71742">
        <ele>464</ele>
        <time>2018-03-28T22:12:56Z</time>
      </trkpt>
      <trkpt lat="46.45668" lon="4.71738">
        <ele>463</ele>
        <time>2018-03-28T22:13:56Z</time>
      </trkpt>
      <trkpt lat="46.45599" lon="4.71763">
        <ele>460</ele>
        <time>2018-03-28T22:14:56Z</time>
      </trkpt>
      <trkpt lat="46.45553" lon="4.71825">
        <ele>454</ele>
        <time>2018-03-28T22:15:56Z</time>
      </trkpt>
      <trkpt lat="46.4539" lon="4.71577">
        <ele>477</ele>
        <time>2018-03-28T22:16:56Z</time>
      </trkpt>
      <trkpt lat="46.45294" lon="4.71602">
        <ele>477</ele>
        <time>2018-03-28T22:17:56Z</time>
      </trkpt>
      <trkpt lat="46.45099" lon="4.71525">
        <ele>480</ele>
        <time>2018-03-28T22:18:56Z</time>
      </trkpt>
      <trkpt lat="46.44985" lon="4.71471">
        <ele>489</ele>
        <time>2018-03-28T22:19:56Z</time>
      </trkpt>
      <trkpt lat="46.44908" lon="4.71475">
        <ele>492</ele>
        <time>2018-03-28T22:20:56Z</time>
      </trkpt>
      <trkpt lat="46.44864" lon="4.71424">
        <ele>490</ele>
        <time>2018-03-28T22:21:56Z</time>
      </trkpt>
      <trkpt lat="46.44749" lon="4.71415">
        <ele>489</ele>
        <time>2018-03-28T22:22:56Z</time>
      </trkpt>
      <trkpt lat="46.44701" lon="4.71362">
        <ele>490</ele>
        <time>2018-03-28T22:23:56Z</time>
      </trkpt>
      <trkpt lat="46.4467" lon="4.71398">
        <ele>492</ele>
        <time>2018-03-28T22:24:56Z</time>
      </trkpt>
      <trkpt lat="46.44602" lon="4.71413">
        <ele>496</ele>
        <time>2018-03-28T22:25:56Z</time>
      </trkpt>
      <trkpt lat="46.44559" lon="4.7139">
        <ele>499</ele>
        <time>2018-03-28T22:26:56Z</time>
      </trkpt>
      <trkpt lat="46.44518" lon="4.71482">
        <ele>492</ele>
        <time>2018-03-28T22:27:56Z</time>
      </trkpt>
      <trkpt lat="46.44522" lon="4.71514">
        <ele>490</ele>
        <time>2018-03-28T22:28:56Z</time>
      </trkpt>
      <trkpt lat="46.44528" lon="4.7154">
        <ele>488</ele>
        <time>2018-03-28T22:29:56Z</time>
      </trkpt>
      <trkpt lat="46.44477" lon="4.7152">
        <ele>488</ele>
        <time>2018-03-28T22:30:56Z</time>
      </trkpt>
      <trkpt lat="46.44424" lon="4.71442">
        <ele>488</ele>
        <time>2018-03-28T22:31:56Z</time>
      </trkpt>
      <trkpt lat="46.44371" lon="4.71427">
        <ele>489</ele>
        <time>2018-03-28T22:32:56Z</time>
      </trkpt>
      <trkpt lat="46.44284" lon="4.7123">
        <ele>483</ele>
        <time>2018-03-28T22:33:56Z</time>
      </trkpt>
      <trkpt lat="46.4418" lon="4.71087">
        <ele>468</ele>
        <time>2018-03-28T22:34:56Z</time>
      </trkpt>
      <trkpt lat="46.44033" lon="4.70962">
        <ele>467</ele>
        <time>2018-03-28T22:35:56Z</time>
      </trkpt>
      <trkpt lat="46.44011" lon="4.70893">
        <ele>462</ele>
        <time>2018-03-28T22:36:56Z</time>
      </trkpt>
      <trkpt lat="46.44042" lon="4.7074">
        <ele>439</ele>
        <time>2018-03-28T22:37:56Z</time>
      </trkpt>
      <trkpt lat="46.4401" lon="4.70612">
        <ele>435</ele>
        <time>2018-03-28T22:38:56Z</time>
      </trkpt>
      <trkpt lat="46.44022" lon="4.70421">
        <ele>421</ele>
        <time>2018-03-28T22:39:56Z</time>
      </trkpt>
      <trkpt lat="46.439" lon="4.70316">
        <ele>413</ele>
        <time>2018-03-28T22:40:56Z</time>
      </trkpt>
      <trkpt lat="46.43863" lon="4.70258">
        <ele>408</ele>
        <time>2018-03-28T22:41:56Z</time>
      </trkpt>
      <trkpt lat="46.43834" lon="4.70229">
        <ele>400</ele>
        <time>2018-03-28T22:42:56Z</time>
      </trkpt>
      <trkpt lat="46.43814" lon="4.70143">
        <ele>393</ele>
        <time>2018-03-28T22:43:56Z</time>
      </trkpt>
      <trkpt lat="46.43838" lon="4.69917">
        <ele>369</ele>
        <time>2018-03-28T22:44:56Z</time>
      </trkpt>
      <trkpt lat="46.43898" lon="4.6971">
        <ele>340</ele>
        <time>2018-03-28T22:45:56Z</time>
      </trkpt>
      <trkpt lat="46.43873" lon="4.69672">
        <ele>334</ele>
        <time>2018-03-28T22:46:56Z</time>
      </trkpt>
      <trkpt lat="46.43842" lon="4.69663">
        <ele>333</ele>
        <time>2018-03-28T22:47:56Z</time>
      </trkpt>
      <trkpt lat="46.43837" lon="4.69526">
        <ele>341</ele>
        <time>2018-03-28T22:48:56Z</time>
      </trkpt>
      <trkpt lat="46.43802" lon="4.69302">
        <ele>347</ele>
        <time>2018-03-28T22:49:56Z</time>
      </trkpt>
      <trkpt lat="46.43751" lon="4.69226">
        <ele>347</ele>
        <time>2018-03-28T22:50:56Z</time>
      </trkpt>
      <trkpt lat="46.43785" lon="4.68012">
        <ele>288</ele>
        <time>2018-03-28T22:51:56Z</time>
      </trkpt>
      <trkpt lat="46.43722" lon="4.6807">
        <ele>294</ele>
        <time>2018-03-28T22:52:56Z</time>
      </trkpt>
      <trkpt lat="46.43657" lon="4.68315">
        <ele>300</ele>
        <time>2018-03-28T22:53:56Z</time>
      </trkpt>
      <trkpt lat="46.43666" lon="4.68504">
        <ele>304</ele>
        <time>2018-03-28T22:54:56Z</time>
      </trkpt>
      <trkpt lat="46.43637" lon="4.68698">
        <ele>309</ele>
        <time>2018-03-28T22:55:56Z</time>
      </trkpt>
      <trkpt lat="46.43548" lon="4.6891">
        <ele>318</ele>
        <time>2018-03-28T22:56:56Z</time>
      </trkpt>
      <trkpt lat="46.43509" lon="4.68909">
        <ele>319</ele>
        <time>2018-03-28T22:57:56Z</time>
      </trkpt>
      <trkpt lat="46.43487" lon="4.68889">
        <ele>320</ele>
        <time>2018-03-28T22:58:56Z</time>
      </trkpt>
      <trkpt lat="46.43469" lon="4.68838">
        <ele>320</ele>
        <time>2018-03-28T22:59:56Z</time>
      </trkpt>
      <trkpt lat="46.43454" lon="4.68741">
        <ele>312</ele>
        <time>2018-03-28T23:00:56Z</time>
      </trkpt>
      <trkpt lat="46.4342" lon="4.68714">
        <ele>317</ele>
        <time>2018-03-28T23:01:56Z</time>
      </trkpt>
      <trkpt lat="46.43362" lon="4.6869">
        <ele>324</ele>
        <time>2018-03-28T23:02:56Z</time>
      </trkpt>
      <trkpt lat="46.43343" lon="4.68643">
        <ele>324</ele>
        <time>2018-03-28T23:03:56Z</time>
      </trkpt>
      <trkpt lat="46.43347" lon="4.68578">
        <ele>319</ele>
        <time>2018-03-28T23:04:56Z</time>
      </trkpt>
      <trkpt lat="46.43332" lon="4.68504">
        <ele>320</ele>
        <time>2018-03-28T23:05:56Z</time>
      </trkpt>
      <trkpt lat="46.43274" lon="4.68438">
        <ele>322</ele>
        <time>2018-03-28T23:06:56Z</time>
      </trkpt>
      <trkpt lat="46.43196" lon="4.68347">
        <ele>321</ele>
        <time>2018-03-28T23:07:56Z</time>
      </trkpt>
      <trkpt lat="46.43123" lon="4.68259">
        <ele>312</ele>
        <time>2018-03-28T23:08:56Z</time>
      </trkpt>
      <trkpt lat="46.43174" lon="4.68154">
        <ele>303</ele>
        <time>2018-03-28T23:09:56Z</time>
      </trkpt>
      <trkpt lat="46.43197" lon="4.68044">
        <ele>298</ele>
        <time>2018-03-28T23:10:56Z</time>
      </trkpt>
      <trkpt lat="46.43132" lon="4.68034">
        <ele>301</ele>
        <time>2018-03-28T23:11:56Z</time>
      </trkpt>
      <trkpt lat="46.43065" lon="4.68001">
        <ele>300</ele>
        <time>2018-03-28T23:12:56Z</time>
      </trkpt>
      <trkpt lat="46.43042" lon="4.67968">
        <ele>296</ele>
        <time>2018-03-28T23:13:56Z</time>
      </trkpt>
      <trkpt lat="46.43004" lon="4.6793">
        <ele>293</ele>
        <time>2018-03-28T23:14:56Z</time>
      </trkpt>
      <trkpt lat="46.42982" lon="4.67848">
        <ele>286</ele>
        <time>2018-03-28T23:15:56Z</time>
      </trkpt>
      <trkpt lat="46.42977" lon="4.67782">
        <ele>283</ele>
        <time>2018-03-28T23:16:56Z</time>
      </trkpt>
      <trkpt lat="46.42938" lon="4.67636">
        <ele>272</ele>
        <time>2018-03-28T23:17:56Z</time>
      </trkpt>
      <trkpt lat="46.42935" lon="4.67514">
        <ele>266</ele>
        <time>2018-03-28T23:18:56Z</time>
      </trkpt>
      <trkpt lat="46.42949" lon="4.67391">
        <ele>262</ele>
        <time>2018-03-28T23:19:56Z</time>
      </trkpt>
      <trkpt lat="46.43116" lon="4.67039">
        <ele>248</ele>
        <time>2018-03-28T23:20:56Z</time>
      </trkpt>
      <trkpt lat="46.43193" lon="4.67072">
        <ele>248</ele>
        <time>2018-03-28T23:21:56Z</time>
      </trkpt>
      <trkpt lat="46.43244" lon="4.67019">
        <ele>243</ele>
        <time>2018-03-28T23:22:56Z</time>
      </trkpt>
      <trkpt lat="46.43237" lon="4.66922">
        <ele>240</ele>
        <time>2018-03-28T23:23:56Z</time>
      </trkpt>
      <trkpt lat="46.43239" lon="4.66617">
        <ele>235</ele>
        <time>2018-03-28T23:24:56Z</time>
      </trkpt>
      <trkpt lat="46.43223" lon="4.66439">
        <ele>235</ele>
        <time>2018-03-28T23:25:56Z</time>
      </trkpt>
      <trkpt lat="46.43222" lon="4.66389">
        <ele>235</ele>
        <time>2018-03-28T23:26:56Z</time>
      </trkpt>
      <trkpt lat="46.433" lon="4.66397">
        <ele>236</ele>
        <time>2018-03-28T23:27:56Z</time>
      </trkpt>
      <trkpt lat="46.43334" lon="4.66241">
        <ele>237</ele>
        <time>2018-03-28T23:28:56Z</time>
      </trkpt>
      <trkpt lat="46.43516" lon="4.66306">
        <ele>234</ele>
        <time>2018-03-28T23:29:56Z</time>
      </trkpt>
      <trkpt lat="46.4355" lon="4.66291">
        <ele>234</ele>
        <time>2018-03-28T23:30:56Z</time>
      </trkpt>
      <trkpt lat="46.4365" lon="4.65955">
        <ele>240</ele>
        <time>2018-03-28T23:31:56Z</time>
      </trkpt>
      <trkpt lat="46.43764" lon="4.65802">
        <ele>253</ele>
        <time>2018-03-28T23:32:56Z</time>
      </trkpt>
      <trkpt lat="46.43656" lon="4.65782">
        <ele>254</ele>
        <time>2018-03-28T23:33:56Z</time>
      </trkpt>
      <trkpt lat="46.43689" lon="4.65705">
        <ele>261</ele>
        <time>2018-03-28T23:34:56Z</time>
      </trkpt>
      <trkpt lat="46.43703" lon="4.65694">
        <ele>262</ele>
        <time>2018-03-28T23:35:56Z</time>
      </trkpt>
      <trkpt lat="46.43728" lon="4.65644">
        <ele>266</ele>
        <time>2018-03-28T23:36:56Z</time>
      </trkpt>
    </trkseg>
  </trk>
</gpx>